sensor_id;sensor_type;location;lat;lon;timestamp;temperature;humidity
30134;DHT22;16946;49.984;10.672;2022-10-31T00:00:29;9.20;99.90
30134;DHT22;16946;49.984;10.672;2022-10-31T00:01:00;9.20;99.90
30134;DHT22;16946;49.984;10.672;2022-10-31T00:01:36;9.20;99.90
30134;DHT22;16946;49.984;10.672;2022-10-31T00:02:07;9.20;99.90
30134;DHT22;16946;49.984;10.672;2022-10-31T00:02:37;9.20;99.90
30134;DHT22;16946;49.984;10.672;2022-10-31T00:03:08;9.20;99.90
30134;DHT22;16946;49.984;10.672;2022-10-31T00:03:39;9.10;99.90
30134;DHT22;16946;49.984;10.672;2022-10-31T00:04:09;9.10;99.90
30134;DHT22;16946;49.984;10.672;2022-10-31T00:04:40;9.20;99.90
30134;DHT22;16946;49.984;10.672;2022-10-31T00:05:10;9.10;99.90
30134;DHT22;16946;49.984;10.672;2022-10-31T00:05:43;9.10;99.90
30134;DHT22;16946;49.984;10.672;2022-10-31T00:06:14;9.10;99.90
30134;DHT22;16946;49.984;10.672;2022-10-31T00:06:45;9.10;99.90
30134;DHT22;16946;49.984;10.672;2022-10-31T00:07:15;9.10;99.90
30134;DHT22;16946;49.984;10.672;2022-10-31T00:07:46;9.00;99.90
30134;DHT22;16946;49.984;10.672;2022-10-31T00:08:17;9.10;99.90
30134;DHT22;16946;49.984;10.672;2022-10-31T00:08:53;9.10;99.90
30134;DHT22;16946;49.984;10.672;2022-10-31T00:09:23;9.10;99.90
30134;DHT22;16946;49.984;10.672;2022-10-31T00:09:54;9.10;99.90
30134;DHT22;16946;49.984;10.672;2022-10-31T00:10:24;9.00;99.90
30134;DHT22;16946;49.984;10.672;2022-10-31T00:10:55;9.10;99.90
30134;DHT22;16946;49.984;10.672;2022-10-31T00:11:26;9.10;99.90
30134;DHT22;16946;49.984;10.672;2022-10-31T00:11:57;9.10;99.90
30134;DHT22;16946;49.984;10.672;2022-10-31T00:12:27;9.10;99.90
30134;DHT22;16946;49.984;10.672;2022-10-31T00:12:58;9.10;99.90
30134;DHT22;16946;49.984;10.672;2022-10-31T00:13:28;9.10;99.90
30134;DHT22;16946;49.984;10.672;2022-10-31T00:13:59;9.10;99.90
30134;DHT22;16946;49.984;10.672;2022-10-31T00:14:30;9.10;99.90
30134;DHT22;16946;49.984;10.672;2022-10-31T00:15:00;9.10;99.90
30134;DHT22;16946;49.984;10.672;2022-10-31T00:15:33;9.10;99.90
30134;DHT22;16946;49.984;10.672;2022-10-31T00:16:03;9.10;99.90
30134;DHT22;16946;49.984;10.672;2022-10-31T00:16:34;9.10;99.90
30134;DHT22;16946;49.984;10.672;2022-10-31T00:17:05;9.10;99.90
30134;DHT22;16946;49.984;10.672;2022-10-31T00:17:35;9.10;99.90
30134;DHT22;16946;49.984;10.672;2022-10-31T00:18:08;9.00;99.90
30134;DHT22;16946;49.984;10.672;2022-10-31T00:18:39;9.10;99.90
30134;DHT22;16946;49.984;10.672;2022-10-31T00:19:09;9.00;99.90
30134;DHT22;16946;49.984;10.672;2022-10-31T00:19:40;9.00;99.90
30134;DHT22;16946;49.984;10.672;2022-10-31T00:20:10;9.00;99.90
30134;DHT22;16946;49.984;10.672;2022-10-31T00:20:41;9.00;99.90
30134;DHT22;16946;49.984;10.672;2022-10-31T00:21:11;8.90;99.90
30134;DHT22;16946;49.984;10.672;2022-10-31T00:21:42;8.90;99.90
30134;DHT22;16946;49.984;10.672;2022-10-31T00:22:12;8.90;99.90
30134;DHT22;16946;49.984;10.672;2022-10-31T00:22:43;8.90;99.90
30134;DHT22;16946;49.984;10.672;2022-10-31T00:23:13;8.90;99.90
30134;DHT22;16946;49.984;10.672;2022-10-31T00:23:44;8.90;99.90
30134;DHT22;16946;49.984;10.672;2022-10-31T00:24:14;8.80;99.90
30134;DHT22;16946;49.984;10.672;2022-10-31T00:24:45;8.90;99.90
30134;DHT22;16946;49.984;10.672;2022-10-31T00:25:15;8.90;99.90
30134;DHT22;16946;49.984;10.672;2022-10-31T00:25:46;8.90;99.90
30134;DHT22;16946;49.984;10.672;2022-10-31T00:26:18;8.90;99.90
30134;DHT22;16946;49.984;10.672;2022-10-31T00:26:48;8.90;99.90
30134;DHT22;16946;49.984;10.672;2022-10-31T00:27:19;8.90;99.90
30134;DHT22;16946;49.984;10.672;2022-10-31T00:27:49;8.90;99.90
30134;DHT22;16946;49.984;10.672;2022-10-31T00:28:20;8.90;99.90
30134;DHT22;16946;49.984;10.672;2022-10-31T00:28:50;8.90;99.90
30134;DHT22;16946;49.984;10.672;2022-10-31T00:29:21;9.00;99.90
30134;DHT22;16946;49.984;10.672;2022-10-31T00:29:52;8.90;99.90
30134;DHT22;16946;49.984;10.672;2022-10-31T00:30:22;8.90;99.90
30134;DHT22;16946;49.984;10.672;2022-10-31T00:30:53;8.90;99.90
30134;DHT22;16946;49.984;10.672;2022-10-31T00:31:23;8.90;99.90
30134;DHT22;16946;49.984;10.672;2022-10-31T00:31:54;8.90;99.90
30134;DHT22;16946;49.984;10.672;2022-10-31T00:32:24;8.90;99.90
30134;DHT22;16946;49.984;10.672;2022-10-31T00:32:55;8.90;99.90
30134;DHT22;16946;49.984;10.672;2022-10-31T00:33:26;8.90;99.90
30134;DHT22;16946;49.984;10.672;2022-10-31T00:33:57;8.80;99.90
30134;DHT22;16946;49.984;10.672;2022-10-31T00:34:28;8.80;99.90
30134;DHT22;16946;49.984;10.672;2022-10-31T00:34:59;8.80;99.90
30134;DHT22;16946;49.984;10.672;2022-10-31T00:35:29;8.90;99.90
30134;DHT22;16946;49.984;10.672;2022-10-31T00:36:00;8.90;99.90
30134;DHT22;16946;49.984;10.672;2022-10-31T00:36:30;8.90;99.90
30134;DHT22;16946;49.984;10.672;2022-10-31T00:37:01;8.90;99.90
30134;DHT22;16946;49.984;10.672;2022-10-31T00:37:31;8.90;99.90
30134;DHT22;16946;49.984;10.672;2022-10-31T00:38:02;8.90;99.90
30134;DHT22;16946;49.984;10.672;2022-10-31T00:38:33;8.90;99.90
30134;DHT22;16946;49.984;10.672;2022-10-31T00:39:03;8.90;99.90
30134;DHT22;16946;49.984;10.672;2022-10-31T00:39:34;8.90;99.90
30134;DHT22;16946;49.984;10.672;2022-10-31T00:40:05;8.80;99.90
30134;DHT22;16946;49.984;10.672;2022-10-31T00:40:36;8.80;99.90
30134;DHT22;16946;49.984;10.672;2022-10-31T00:41:06;8.80;99.90
30134;DHT22;16946;49.984;10.672;2022-10-31T00:41:37;8.80;99.90
30134;DHT22;16946;49.984;10.672;2022-10-31T00:42:07;8.80;99.90
30134;DHT22;16946;49.984;10.672;2022-10-31T00:42:41;8.80;99.90
30134;DHT22;16946;49.984;10.672;2022-10-31T00:43:12;8.70;99.90
30134;DHT22;16946;49.984;10.672;2022-10-31T00:43:43;8.70;99.90
30134;DHT22;16946;49.984;10.672;2022-10-31T00:44:13;8.70;99.90
30134;DHT22;16946;49.984;10.672;2022-10-31T00:44:44;8.70;99.90
30134;DHT22;16946;49.984;10.672;2022-10-31T00:45:14;8.70;99.90
30134;DHT22;16946;49.984;10.672;2022-10-31T00:45:45;8.70;99.90
30134;DHT22;16946;49.984;10.672;2022-10-31T00:46:15;8.70;99.90
30134;DHT22;16946;49.984;10.672;2022-10-31T00:46:46;8.70;99.90
30134;DHT22;16946;49.984;10.672;2022-10-31T00:47:16;8.70;99.90
30134;DHT22;16946;49.984;10.672;2022-10-31T00:47:47;8.70;99.90
30134;DHT22;16946;49.984;10.672;2022-10-31T00:48:17;8.80;99.90
30134;DHT22;16946;49.984;10.672;2022-10-31T00:48:48;8.70;99.90
30134;DHT22;16946;49.984;10.672;2022-10-31T00:49:18;8.70;99.90
30134;DHT22;16946;49.984;10.672;2022-10-31T00:49:49;8.80;99.90
30134;DHT22;16946;49.984;10.672;2022-10-31T00:50:20;8.80;99.90
30134;DHT22;16946;49.984;10.672;2022-10-31T00:50:50;8.80;99.90
30134;DHT22;16946;49.984;10.672;2022-10-31T00:51:21;8.80;99.90
30134;DHT22;16946;49.984;10.672;2022-10-31T00:51:51;8.80;99.90
30134;DHT22;16946;49.984;10.672;2022-10-31T00:52:22;8.80;99.90
30134;DHT22;16946;49.984;10.672;2022-10-31T00:52:52;8.80;99.90
30134;DHT22;16946;49.984;10.672;2022-10-31T00:53:23;8.80;99.90
30134;DHT22;16946;49.984;10.672;2022-10-31T00:53:53;8.80;99.90
30134;DHT22;16946;49.984;10.672;2022-10-31T00:54:24;8.80;99.90
30134;DHT22;16946;49.984;10.672;2022-10-31T00:54:54;8.90;99.90
30134;DHT22;16946;49.984;10.672;2022-10-31T00:55:25;8.90;99.90
30134;DHT22;16946;49.984;10.672;2022-10-31T00:55:55;8.90;99.90
30134;DHT22;16946;49.984;10.672;2022-10-31T00:56:26;8.90;99.90
30134;DHT22;16946;49.984;10.672;2022-10-31T00:56:57;8.90;99.90
30134;DHT22;16946;49.984;10.672;2022-10-31T00:57:27;8.90;99.90
30134;DHT22;16946;49.984;10.672;2022-10-31T00:57:58;8.90;99.90
30134;DHT22;16946;49.984;10.672;2022-10-31T00:58:28;8.80;99.90
30134;DHT22;16946;49.984;10.672;2022-10-31T00:58:59;8.90;99.90
30134;DHT22;16946;49.984;10.672;2022-10-31T00:59:29;8.80;99.90
30134;DHT22;16946;49.984;10.672;2022-10-31T01:00:00;8.80;99.90
30134;DHT22;16946;49.984;10.672;2022-10-31T01:00:30;8.80;99.90
30134;DHT22;16946;49.984;10.672;2022-10-31T01:01:01;8.80;99.90
30134;DHT22;16946;49.984;10.672;2022-10-31T01:01:32;8.80;99.90
30134;DHT22;16946;49.984;10.672;2022-10-31T01:02:02;8.80;99.90
30134;DHT22;16946;49.984;10.672;2022-10-31T01:02:33;8.70;99.90
30134;DHT22;16946;49.984;10.672;2022-10-31T01:03:03;8.70;99.90
30134;DHT22;16946;49.984;10.672;2022-10-31T01:03:34;8.70;99.90
30134;DHT22;16946;49.984;10.672;2022-10-31T01:04:05;8.70;99.90
30134;DHT22;16946;49.984;10.672;2022-10-31T01:04:35;8.70;99.90
30134;DHT22;16946;49.984;10.672;2022-10-31T01:05:06;8.70;99.90
30134;DHT22;16946;49.984;10.672;2022-10-31T01:05:37;8.70;99.90
30134;DHT22;16946;49.984;10.672;2022-10-31T01:06:12;8.60;99.90
30134;DHT22;16946;49.984;10.672;2022-10-31T01:06:43;8.60;99.90
30134;DHT22;16946;49.984;10.672;2022-10-31T01:07:13;8.60;99.90
30134;DHT22;16946;49.984;10.672;2022-10-31T01:07:44;8.60;99.90
30134;DHT22;16946;49.984;10.672;2022-10-31T01:08:14;8.60;99.90
30134;DHT22;16946;49.984;10.672;2022-10-31T01:08:47;8.60;99.90
30134;DHT22;16946;49.984;10.672;2022-10-31T01:09:17;8.60;99.90
30134;DHT22;16946;49.984;10.672;2022-10-31T01:09:48;8.60;99.90
30134;DHT22;16946;49.984;10.672;2022-10-31T01:10:19;8.60;99.90
30134;DHT22;16946;49.984;10.672;2022-10-31T01:11:08;8.60;99.90
30134;DHT22;16946;49.984;10.672;2022-10-31T01:11:40;8.60;99.90
30134;DHT22;16946;49.984;10.672;2022-10-31T01:12:10;8.60;99.90
30134;DHT22;16946;49.984;10.672;2022-10-31T01:12:48;8.60;99.90
30134;DHT22;16946;49.984;10.672;2022-10-31T01:13:18;8.60;99.90
30134;DHT22;16946;49.984;10.672;2022-10-31T01:13:51;8.60;99.90
30134;DHT22;16946;49.984;10.672;2022-10-31T01:14:22;8.60;99.90
30134;DHT22;16946;49.984;10.672;2022-10-31T01:14:52;8.60;99.90
30134;DHT22;16946;49.984;10.672;2022-10-31T01:15:23;8.60;99.90
30134;DHT22;16946;49.984;10.672;2022-10-31T01:15:55;8.60;99.90
30134;DHT22;16946;49.984;10.672;2022-10-31T01:16:27;8.60;99.90
30134;DHT22;16946;49.984;10.672;2022-10-31T01:16:57;8.60;99.90
30134;DHT22;16946;49.984;10.672;2022-10-31T01:17:28;8.50;99.90
30134;DHT22;16946;49.984;10.672;2022-10-31T01:17:58;8.50;99.90
30134;DHT22;16946;49.984;10.672;2022-10-31T01:18:29;8.60;99.90
30134;DHT22;16946;49.984;10.672;2022-10-31T01:18:59;8.50;99.90
30134;DHT22;16946;49.984;10.672;2022-10-31T01:19:30;8.60;99.90
30134;DHT22;16946;49.984;10.672;2022-10-31T01:20:01;8.60;99.90
30134;DHT22;16946;49.984;10.672;2022-10-31T01:20:31;8.60;99.90
30134;DHT22;16946;49.984;10.672;2022-10-31T01:21:11;8.60;99.90
30134;DHT22;16946;49.984;10.672;2022-10-31T01:21:42;8.60;99.90
30134;DHT22;16946;49.984;10.672;2022-10-31T01:22:12;8.60;99.90
30134;DHT22;16946;49.984;10.672;2022-10-31T01:22:43;8.60;99.90
30134;DHT22;16946;49.984;10.672;2022-10-31T01:23:13;8.60;99.90
30134;DHT22;16946;49.984;10.672;2022-10-31T01:23:44;8.60;99.90
30134;DHT22;16946;49.984;10.672;2022-10-31T01:24:15;8.60;99.90
30134;DHT22;16946;49.984;10.672;2022-10-31T01:24:45;8.60;99.90
30134;DHT22;16946;49.984;10.672;2022-10-31T01:25:16;8.60;99.90
30134;DHT22;16946;49.984;10.672;2022-10-31T01:25:46;8.60;99.90
30134;DHT22;16946;49.984;10.672;2022-10-31T01:26:21;8.60;99.90
30134;DHT22;16946;49.984;10.672;2022-10-31T01:26:51;8.60;99.90
30134;DHT22;16946;49.984;10.672;2022-10-31T01:27:22;8.60;99.90
30134;DHT22;16946;49.984;10.672;2022-10-31T01:27:53;8.60;99.90
30134;DHT22;16946;49.984;10.672;2022-10-31T01:28:23;8.60;99.90
30134;DHT22;16946;49.984;10.672;2022-10-31T01:28:59;8.60;99.90
30134;DHT22;16946;49.984;10.672;2022-10-31T01:29:30;8.60;99.90
30134;DHT22;16946;49.984;10.672;2022-10-31T01:30:00;8.60;99.90
30134;DHT22;16946;49.984;10.672;2022-10-31T01:30:31;8.70;99.90
30134;DHT22;16946;49.984;10.672;2022-10-31T01:31:08;8.70;99.90
30134;DHT22;16946;49.984;10.672;2022-10-31T01:31:39;8.70;99.90
30134;DHT22;16946;49.984;10.672;2022-10-31T01:32:10;8.70;99.90
30134;DHT22;16946;49.984;10.672;2022-10-31T01:32:40;8.70;99.90
30134;DHT22;16946;49.984;10.672;2022-10-31T01:33:11;8.70;99.90
30134;DHT22;16946;49.984;10.672;2022-10-31T01:33:41;8.70;99.90
30134;DHT22;16946;49.984;10.672;2022-10-31T01:34:14;8.70;99.90
30134;DHT22;16946;49.984;10.672;2022-10-31T01:34:45;8.70;99.90
30134;DHT22;16946;49.984;10.672;2022-10-31T01:35:15;8.70;99.90
30134;DHT22;16946;49.984;10.672;2022-10-31T01:35:46;8.70;99.90
30134;DHT22;16946;49.984;10.672;2022-10-31T01:36:58;8.80;99.90
30134;DHT22;16946;49.984;10.672;2022-10-31T01:37:30;8.80;99.90
30134;DHT22;16946;49.984;10.672;2022-10-31T01:38:00;8.80;99.90
30134;DHT22;16946;49.984;10.672;2022-10-31T01:38:31;8.80;99.90
30134;DHT22;16946;49.984;10.672;2022-10-31T01:39:09;8.80;99.90
30134;DHT22;16946;49.984;10.672;2022-10-31T01:39:40;8.80;99.90
30134;DHT22;16946;49.984;10.672;2022-10-31T01:40:10;8.80;99.90
30134;DHT22;16946;49.984;10.672;2022-10-31T01:40:41;8.80;99.90
30134;DHT22;16946;49.984;10.672;2022-10-31T01:41:14;8.80;99.90
30134;DHT22;16946;49.984;10.672;2022-10-31T01:41:47;8.80;99.90
30134;DHT22;16946;49.984;10.672;2022-10-31T01:42:21;8.90;99.90
30134;DHT22;16946;49.984;10.672;2022-10-31T01:42:52;8.90;99.90
30134;DHT22;16946;49.984;10.672;2022-10-31T01:43:22;8.80;99.90
30134;DHT22;16946;49.984;10.672;2022-10-31T01:43:56;8.90;99.90
30134;DHT22;16946;49.984;10.672;2022-10-31T01:45:00;8.90;99.90
30134;DHT22;16946;49.984;10.672;2022-10-31T01:45:31;8.90;99.90
30134;DHT22;16946;49.984;10.672;2022-10-31T01:46:01;8.90;99.90
30134;DHT22;16946;49.984;10.672;2022-10-31T01:46:33;8.90;99.90
30134;DHT22;16946;49.984;10.672;2022-10-31T01:47:15;8.90;99.90
30134;DHT22;16946;49.984;10.672;2022-10-31T01:47:48;8.80;99.90
30134;DHT22;16946;49.984;10.672;2022-10-31T01:48:22;8.80;99.90
30134;DHT22;16946;49.984;10.672;2022-10-31T01:48:55;8.80;99.90
30134;DHT22;16946;49.984;10.672;2022-10-31T01:49:54;8.80;99.90
30134;DHT22;16946;49.984;10.672;2022-10-31T01:50:32;8.80;99.90
30134;DHT22;16946;49.984;10.672;2022-10-31T01:51:05;8.80;99.90
30134;DHT22;16946;49.984;10.672;2022-10-31T01:51:40;8.80;99.90
30134;DHT22;16946;49.984;10.672;2022-10-31T01:52:27;8.80;99.90
30134;DHT22;16946;49.984;10.672;2022-10-31T01:53:01;8.80;99.90
30134;DHT22;16946;49.984;10.672;2022-10-31T01:53:33;8.80;99.90
30134;DHT22;16946;49.984;10.672;2022-10-31T01:54:06;8.80;99.90
30134;DHT22;16946;49.984;10.672;2022-10-31T01:54:41;8.80;99.90
30134;DHT22;16946;49.984;10.672;2022-10-31T01:55:45;8.70;99.90
30134;DHT22;16946;49.984;10.672;2022-10-31T01:56:17;8.70;99.90
30134;DHT22;16946;49.984;10.672;2022-10-31T01:56:50;8.70;99.90
30134;DHT22;16946;49.984;10.672;2022-10-31T01:57:22;8.70;99.90
30134;DHT22;16946;49.984;10.672;2022-10-31T01:57:55;8.70;99.90
30134;DHT22;16946;49.984;10.672;2022-10-31T01:58:28;8.70;99.90
30134;DHT22;16946;49.984;10.672;2022-10-31T01:59:01;8.70;99.90
30134;DHT22;16946;49.984;10.672;2022-10-31T01:59:35;8.70;99.90
30134;DHT22;16946;49.984;10.672;2022-10-31T02:00:09;8.70;99.90
30134;DHT22;16946;49.984;10.672;2022-10-31T02:00:43;8.70;99.90
30134;DHT22;16946;49.984;10.672;2022-10-31T02:01:16;8.70;99.90
30134;DHT22;16946;49.984;10.672;2022-10-31T02:01:49;8.80;99.90
30134;DHT22;16946;49.984;10.672;2022-10-31T02:02:20;8.80;99.90
30134;DHT22;16946;49.984;10.672;2022-10-31T02:02:51;8.80;99.90
30134;DHT22;16946;49.984;10.672;2022-10-31T02:03:22;8.80;99.90
30134;DHT22;16946;49.984;10.672;2022-10-31T02:03:54;8.80;99.90
30134;DHT22;16946;49.984;10.672;2022-10-31T02:04:25;8.80;99.90
30134;DHT22;16946;49.984;10.672;2022-10-31T02:04:56;8.80;99.90
30134;DHT22;16946;49.984;10.672;2022-10-31T02:05:29;8.80;99.90
30134;DHT22;16946;49.984;10.672;2022-10-31T02:06:02;8.80;99.90
30134;DHT22;16946;49.984;10.672;2022-10-31T02:06:45;8.80;99.90
30134;DHT22;16946;49.984;10.672;2022-10-31T02:07:23;8.90;99.90
30134;DHT22;16946;49.984;10.672;2022-10-31T02:08:40;8.90;99.90
30134;DHT22;16946;49.984;10.672;2022-10-31T02:09:12;8.90;99.90
30134;DHT22;16946;49.984;10.672;2022-10-31T02:09:45;8.90;99.90
30134;DHT22;16946;49.984;10.672;2022-10-31T02:10:16;8.90;99.90
30134;DHT22;16946;49.984;10.672;2022-10-31T02:10:47;8.90;99.90
30134;DHT22;16946;49.984;10.672;2022-10-31T02:11:18;8.90;99.90
30134;DHT22;16946;49.984;10.672;2022-10-31T02:11:51;8.90;99.90
30134;DHT22;16946;49.984;10.672;2022-10-31T02:12:22;8.90;99.90
30134;DHT22;16946;49.984;10.672;2022-10-31T02:12:56;8.90;99.90
30134;DHT22;16946;49.984;10.672;2022-10-31T02:13:28;8.90;99.90
30134;DHT22;16946;49.984;10.672;2022-10-31T02:14:00;9.00;99.90
30134;DHT22;16946;49.984;10.672;2022-10-31T02:14:31;8.90;99.90
30134;DHT22;16946;49.984;10.672;2022-10-31T02:15:03;9.00;99.90
30134;DHT22;16946;49.984;10.672;2022-10-31T02:15:35;9.00;99.90
30134;DHT22;16946;49.984;10.672;2022-10-31T02:16:06;9.00;99.90
30134;DHT22;16946;49.984;10.672;2022-10-31T02:16:36;9.00;99.90
30134;DHT22;16946;49.984;10.672;2022-10-31T02:17:07;9.00;99.90
30134;DHT22;16946;49.984;10.672;2022-10-31T02:17:37;9.00;99.90
30134;DHT22;16946;49.984;10.672;2022-10-31T02:18:08;9.00;99.90
30134;DHT22;16946;49.984;10.672;2022-10-31T02:18:39;9.00;99.90
30134;DHT22;16946;49.984;10.672;2022-10-31T02:19:13;8.90;99.90
30134;DHT22;16946;49.984;10.672;2022-10-31T02:20:42;9.00;99.90
30134;DHT22;16946;49.984;10.672;2022-10-31T02:22:22;9.00;99.90
30134;DHT22;16946;49.984;10.672;2022-10-31T02:24:45;9.00;99.90
30134;DHT22;16946;49.984;10.672;2022-10-31T02:26:51;9.10;99.90
30134;DHT22;16946;49.984;10.672;2022-10-31T02:29:02;9.10;99.90
30134;DHT22;16946;49.984;10.672;2022-10-31T02:30:07;9.10;99.90
30134;DHT22;16946;49.984;10.672;2022-10-31T02:35:57;9.10;99.90
30134;DHT22;16946;49.984;10.672;2022-10-31T02:36:43;9.10;99.90
30134;DHT22;16946;49.984;10.672;2022-10-31T02:37:29;9.10;99.90
30134;DHT22;16946;49.984;10.672;2022-10-31T02:38:51;9.20;99.90
30134;DHT22;16946;49.984;10.672;2022-10-31T02:39:37;9.20;99.90
30134;DHT22;16946;49.984;10.672;2022-10-31T02:41:09;9.20;99.90
30134;DHT22;16946;49.984;10.672;2022-10-31T02:42:28;9.20;99.90
30134;DHT22;16946;49.984;10.672;2022-10-31T02:43:02;9.30;99.90
30134;DHT22;16946;49.984;10.672;2022-10-31T02:45:26;9.40;99.90
30134;DHT22;16946;49.984;10.672;2022-10-31T02:46:14;9.40;99.90
30134;DHT22;16946;49.984;10.672;2022-10-31T02:47:45;9.30;99.90
30134;DHT22;16946;49.984;10.672;2022-10-31T02:48:19;9.30;99.90
30134;DHT22;16946;49.984;10.672;2022-10-31T02:48:55;9.20;99.90
30134;DHT22;16946;49.984;10.672;2022-10-31T02:50:24;9.30;99.90
30134;DHT22;16946;49.984;10.672;2022-10-31T02:51:01;9.20;99.90
30134;DHT22;16946;49.984;10.672;2022-10-31T02:51:33;9.20;99.90
30134;DHT22;16946;49.984;10.672;2022-10-31T02:52:20;9.30;99.90
30134;DHT22;16946;49.984;10.672;2022-10-31T02:52:52;9.20;99.90
30134;DHT22;16946;49.984;10.672;2022-10-31T02:53:23;9.20;99.90
30134;DHT22;16946;49.984;10.672;2022-10-31T02:53:53;9.20;99.90
30134;DHT22;16946;49.984;10.672;2022-10-31T02:54:26;9.20;99.90
30134;DHT22;16946;49.984;10.672;2022-10-31T02:54:57;9.20;99.90
30134;DHT22;16946;49.984;10.672;2022-10-31T02:56:13;9.30;99.90
30134;DHT22;16946;49.984;10.672;2022-10-31T02:56:44;9.30;99.90
30134;DHT22;16946;49.984;10.672;2022-10-31T02:57:18;9.30;99.90
30134;DHT22;16946;49.984;10.672;2022-10-31T02:58:31;9.30;99.90
30134;DHT22;16946;49.984;10.672;2022-10-31T02:59:00;9.30;99.90
30134;DHT22;16946;49.984;10.672;2022-10-31T02:59:33;9.30;99.90
30134;DHT22;16946;49.984;10.672;2022-10-31T03:00:07;9.30;99.90
30134;DHT22;16946;49.984;10.672;2022-10-31T03:01:01;9.30;99.90
30134;DHT22;16946;49.984;10.672;2022-10-31T03:01:50;9.30;99.90
30134;DHT22;16946;49.984;10.672;2022-10-31T03:03:42;9.40;99.90
30134;DHT22;16946;49.984;10.672;2022-10-31T03:04:56;9.50;99.90
30134;DHT22;16946;49.984;10.672;2022-10-31T03:06:03;9.30;99.90
30134;DHT22;16946;49.984;10.672;2022-10-31T03:06:45;9.30;99.90
30134;DHT22;16946;49.984;10.672;2022-10-31T03:07:30;9.30;99.90
30134;DHT22;16946;49.984;10.672;2022-10-31T03:09:11;9.30;99.90
30134;DHT22;16946;49.984;10.672;2022-10-31T03:10:12;9.30;99.90
30134;DHT22;16946;49.984;10.672;2022-10-31T03:10:59;9.40;99.90
30134;DHT22;16946;49.984;10.672;2022-10-31T03:11:46;9.40;99.90
30134;DHT22;16946;49.984;10.672;2022-10-31T03:12:30;9.40;99.90
30134;DHT22;16946;49.984;10.672;2022-10-31T03:14:19;9.40;99.90
30134;DHT22;16946;49.984;10.672;2022-10-31T03:15:01;9.40;99.90
30134;DHT22;16946;49.984;10.672;2022-10-31T03:15:34;9.40;99.90
30134;DHT22;16946;49.984;10.672;2022-10-31T03:16:19;9.40;99.90
30134;DHT22;16946;49.984;10.672;2022-10-31T03:16:54;9.40;99.90
30134;DHT22;16946;49.984;10.672;2022-10-31T03:17:34;9.40;99.90
30134;DHT22;16946;49.984;10.672;2022-10-31T03:18:55;9.40;99.90
30134;DHT22;16946;49.984;10.672;2022-10-31T03:19:42;9.40;99.90
30134;DHT22;16946;49.984;10.672;2022-10-31T03:20:15;9.40;99.90
30134;DHT22;16946;49.984;10.672;2022-10-31T03:20:56;9.40;99.90
30134;DHT22;16946;49.984;10.672;2022-10-31T03:21:32;9.40;99.90
30134;DHT22;16946;49.984;10.672;2022-10-31T03:22:14;9.40;99.90
30134;DHT22;16946;49.984;10.672;2022-10-31T03:22:46;9.40;99.90
30134;DHT22;16946;49.984;10.672;2022-10-31T03:23:18;9.40;99.90
30134;DHT22;16946;49.984;10.672;2022-10-31T03:23:50;9.40;99.90
30134;DHT22;16946;49.984;10.672;2022-10-31T03:24:22;9.40;99.90
30134;DHT22;16946;49.984;10.672;2022-10-31T03:24:55;9.40;99.90
30134;DHT22;16946;49.984;10.672;2022-10-31T03:25:27;9.40;99.90
30134;DHT22;16946;49.984;10.672;2022-10-31T03:26:01;9.50;99.90
30134;DHT22;16946;49.984;10.672;2022-10-31T03:26:37;9.50;99.90
30134;DHT22;16946;49.984;10.672;2022-10-31T03:27:10;9.60;99.90
30134;DHT22;16946;49.984;10.672;2022-10-31T03:27:43;9.60;99.90
30134;DHT22;16946;49.984;10.672;2022-10-31T03:28:17;9.60;99.90
30134;DHT22;16946;49.984;10.672;2022-10-31T03:28:54;9.60;99.90
30134;DHT22;16946;49.984;10.672;2022-10-31T03:29:29;9.60;99.90
30134;DHT22;16946;49.984;10.672;2022-10-31T03:30:03;9.60;99.90
30134;DHT22;16946;49.984;10.672;2022-10-31T03:30:37;9.60;99.90
30134;DHT22;16946;49.984;10.672;2022-10-31T03:31:09;9.50;99.90
30134;DHT22;16946;49.984;10.672;2022-10-31T03:31:49;9.50;99.90
30134;DHT22;16946;49.984;10.672;2022-10-31T03:32:29;9.50;99.90
30134;DHT22;16946;49.984;10.672;2022-10-31T03:33:03;9.50;99.90
30134;DHT22;16946;49.984;10.672;2022-10-31T03:33:37;9.50;99.90
30134;DHT22;16946;49.984;10.672;2022-10-31T03:34:09;9.40;99.90
30134;DHT22;16946;49.984;10.672;2022-10-31T03:34:42;9.40;99.90
30134;DHT22;16946;49.984;10.672;2022-10-31T03:35:17;9.40;99.90
30134;DHT22;16946;49.984;10.672;2022-10-31T03:35:50;9.40;99.90
30134;DHT22;16946;49.984;10.672;2022-10-31T03:36:23;9.40;99.90
30134;DHT22;16946;49.984;10.672;2022-10-31T03:36:57;9.40;99.90
30134;DHT22;16946;49.984;10.672;2022-10-31T03:37:31;9.40;99.90
30134;DHT22;16946;49.984;10.672;2022-10-31T03:38:03;9.50;99.90
30134;DHT22;16946;49.984;10.672;2022-10-31T03:38:35;9.50;99.90
30134;DHT22;16946;49.984;10.672;2022-10-31T03:39:09;9.50;99.90
30134;DHT22;16946;49.984;10.672;2022-10-31T03:39:44;9.50;99.90
30134;DHT22;16946;49.984;10.672;2022-10-31T03:40:19;9.50;99.90
30134;DHT22;16946;49.984;10.672;2022-10-31T03:40:51;9.50;99.90
30134;DHT22;16946;49.984;10.672;2022-10-31T03:41:25;9.50;99.90
30134;DHT22;16946;49.984;10.672;2022-10-31T03:42:20;9.50;99.90
30134;DHT22;16946;49.984;10.672;2022-10-31T03:42:56;9.50;99.90
30134;DHT22;16946;49.984;10.672;2022-10-31T03:43:32;9.50;99.90
30134;DHT22;16946;49.984;10.672;2022-10-31T03:44:11;9.50;99.90
30134;DHT22;16946;49.984;10.672;2022-10-31T03:44:50;9.50;99.90
30134;DHT22;16946;49.984;10.672;2022-10-31T03:45:26;9.50;99.90
30134;DHT22;16946;49.984;10.672;2022-10-31T03:45:58;9.50;99.90
30134;DHT22;16946;49.984;10.672;2022-10-31T03:46:29;9.50;99.90
30134;DHT22;16946;49.984;10.672;2022-10-31T03:46:59;9.50;99.90
30134;DHT22;16946;49.984;10.672;2022-10-31T03:47:31;9.50;99.90
30134;DHT22;16946;49.984;10.672;2022-10-31T03:48:02;9.50;99.90
30134;DHT22;16946;49.984;10.672;2022-10-31T03:48:33;9.60;99.90
30134;DHT22;16946;49.984;10.672;2022-10-31T03:49:04;9.50;99.90
30134;DHT22;16946;49.984;10.672;2022-10-31T03:49:35;9.60;99.90
30134;DHT22;16946;49.984;10.672;2022-10-31T03:50:07;9.70;99.90
30134;DHT22;16946;49.984;10.672;2022-10-31T03:51:04;9.70;99.90
30134;DHT22;16946;49.984;10.672;2022-10-31T03:52:25;9.80;99.90
30134;DHT22;16946;49.984;10.672;2022-10-31T03:53:22;9.80;99.90
30134;DHT22;16946;49.984;10.672;2022-10-31T03:54:19;9.80;99.90
30134;DHT22;16946;49.984;10.672;2022-10-31T03:55:41;9.90;99.90
30134;DHT22;16946;49.984;10.672;2022-10-31T03:56:21;9.90;99.90
30134;DHT22;16946;49.984;10.672;2022-10-31T03:57:22;9.90;99.90
30134;DHT22;16946;49.984;10.672;2022-10-31T03:58:02;10.00;99.90
30134;DHT22;16946;49.984;10.672;2022-10-31T03:58:37;10.00;99.90
30134;DHT22;16946;49.984;10.672;2022-10-31T03:59:11;10.00;99.90
30134;DHT22;16946;49.984;10.672;2022-10-31T03:59:51;10.00;99.90
30134;DHT22;16946;49.984;10.672;2022-10-31T04:00:23;10.10;99.90